Time;durP1;ratioP1;P1;durP2;ratioP2;P2;SDS_P1;SDS_P2;PMS_P1;PMS_P2;Temp;Humidity;BMP_temperature;BMP_pressure;BME280_temperature;BME280_humidity;BME280_pressure;Samples;Min_cycle;Max_cycle;Signal;HPM_P1;HPM_P2
2022/04/04 00:01:23;;;;;;;2.00;1.90;;;2.20;99.90;;;;;;7382566;19;20328;-64
2022/04/04 00:03:49;;;;;;;2.20;2.00;;;2.20;99.90;;;;;;7386724;19;20304;-64
2022/04/04 00:06:14;;;;;;;2.15;1.95;;;2.10;99.90;;;;;;7385251;19;20313;-64
2022/04/04 00:08:40;;;;;;;2.37;1.83;;;2.10;99.90;;;;;;7383523;19;20932;-63
2022/04/04 00:11:06;;;;;;;2.17;2.00;;;2.10;99.90;;;;;;7383423;19;20333;-64
2022/04/04 00:13:32;;;;;;;2.33;2.03;;;2.00;99.90;;;;;;7382815;19;20706;-64
2022/04/04 00:15:58;;;;;;;2.92;2.15;;;1.90;99.90;;;;;;7386013;19;20344;-64
2022/04/04 00:18:24;;;;;;;2.75;2.13;;;1.80;99.90;;;;;;7385479;19;20704;-64
2022/04/04 00:20:49;;;;;;;2.17;1.97;;;1.80;99.90;;;;;;7382391;19;20335;-64
2022/04/04 00:23:16;;;;;;;2.10;1.90;;;1.80;99.90;;;;;;7383960;19;20312;-63
2022/04/04 00:25:42;;;;;;;1.90;1.80;;;1.80;99.90;;;;;;7370636;19;20356;-63
2022/04/04 00:28:08;;;;;;;2.03;1.92;;;1.70;99.90;;;;;;7364490;19;20420;-63
2022/04/04 00:30:34;;;;;;;2.80;2.20;;;1.70;99.90;;;;;;7364202;19;20308;-63
2022/04/04 00:33:00;;;;;;;2.38;2.10;;;1.60;99.90;;;;;;7383073;19;20320;-63
2022/04/04 00:35:25;;;;;;;3.30;2.00;;;1.60;99.90;;;;;;7381249;19;20337;-63
2022/04/04 00:37:54;;;;;;;2.28;2.08;;;1.50;99.90;;;;;;7380689;19;20336;-63
2022/04/04 00:40:19;;;;;;;2.25;2.05;;;1.50;99.90;;;;;;7382701;19;20328;-63
2022/04/04 00:42:45;;;;;;;2.05;1.88;;;1.40;99.90;;;;;;7383225;19;20352;-63
2022/04/04 00:45:11;;;;;;;2.47;2.00;;;1.40;99.90;;;;;;7382900;19;20333;-63
2022/04/04 00:47:36;;;;;;;2.17;2.00;;;1.40;99.90;;;;;;7384182;19;20321;-63
2022/04/04 00:50:03;;;;;;;2.20;2.00;;;1.30;99.90;;;;;;7382547;19;20342;-63
2022/04/04 00:52:28;;;;;;;1.67;1.58;;;1.30;99.90;;;;;;7382700;19;20336;-63
2022/04/04 00:54:54;;;;;;;2.05;1.88;;;1.20;99.90;;;;;;7383815;19;21230;-63
2022/04/04 00:57:20;;;;;;;2.57;1.93;;;1.20;99.90;;;;;;7384040;19;20468;-63
2022/04/04 00:59:45;;;;;;;2.08;1.77;;;1.10;99.90;;;;;;7378495;19;20833;-63
2022/04/04 01:02:11;;;;;;;1.80;1.70;;;1.10;99.90;;;;;;7380375;19;20306;-63
2022/04/04 01:04:37;;;;;;;1.80;1.70;;;1.00;99.90;;;;;;7383084;19;20333;-64
2022/04/04 01:07:03;;;;;;;1.98;1.85;;;1.00;99.90;;;;;;7382117;19;20312;-64
2022/04/04 01:09:31;;;;;;;1.87;1.77;;;1.00;99.90;;;;;;7381810;19;20325;-63
2022/04/04 01:12:07;;;;;;;2.30;2.10;;;1.00;99.90;;;;;;7378693;19;20349;-63
2022/04/04 01:14:36;;;;;;;1.80;1.70;;;0.90;99.90;;;;;;7379762;19;20336;-63
2022/04/04 01:17:02;;;;;;;2.05;1.90;;;0.90;99.90;;;;;;7382752;19;20313;-63
2022/04/04 01:19:28;;;;;;;2.58;1.80;;;0.90;99.90;;;;;;7382133;19;20305;-63
2022/04/04 01:21:54;;;;;;;2.03;1.90;;;0.90;99.90;;;;;;7381113;19;20316;-63
2022/04/04 01:24:22;;;;;;;2.00;1.90;;;0.80;99.90;;;;;;7384023;19;20857;-64
2022/04/04 01:26:49;;;;;;;1.87;1.77;;;0.80;99.90;;;;;;7384190;19;20309;-63
2022/04/04 01:29:14;;;;;;;3.67;2.43;;;0.70;99.90;;;;;;7378826;19;20348;-63
2022/04/04 01:31:40;;;;;;;4.70;2.00;;;0.70;99.90;;;;;;7377289;19;20311;-64
2022/04/04 01:34:05;;;;;;;2.70;2.00;;;0.70;99.90;;;;;;7384987;19;20332;-63
2022/04/04 01:36:31;;;;;;;2.10;1.90;;;0.70;99.90;;;;;;7382802;19;20696;-63
2022/04/04 01:38:57;;;;;;;2.15;1.83;;;0.60;99.90;;;;;;7382143;19;20690;-63
2022/04/04 01:41:22;;;;;;;3.17;1.80;;;0.60;99.90;;;;;;7382790;19;20332;-63
2022/04/04 01:43:49;;;;;;;2.23;2.00;;;0.60;99.90;;;;;;7380903;19;20354;-64
2022/04/04 01:46:23;;;;;;;1.85;1.75;;;0.60;99.90;;;;;;7384407;19;20308;-63
2022/04/04 01:48:51;;;;;;;2.05;1.88;;;0.70;99.90;;;;;;7381781;19;20308;-63
2022/04/04 01:51:17;;;;;;;1.73;1.63;;;0.70;99.90;;;;;;7381039;19;20361;-63
2022/04/04 01:53:42;;;;;;;1.93;1.83;;;0.70;99.90;;;;;;7369888;19;20325;-66
2022/04/04 01:56:08;;;;;;;2.55;1.70;;;0.60;99.90;;;;;;7380399;19;20371;-63
2022/04/04 01:58:34;;;;;;;2.30;1.80;;;0.60;99.90;;;;;;7381332;19;20348;-63
2022/04/04 02:01:01;;;;;;;1.90;1.77;;;0.60;99.90;;;;;;7378267;19;20406;-63
2022/04/04 02:03:29;;;;;;;3.15;2.05;;;0.60;99.90;;;;;;7379440;19;20362;-63
2022/04/04 02:05:55;;;;;;;1.90;1.80;;;0.60;99.90;;;;;;7381339;19;20333;-63
2022/04/04 02:08:20;;;;;;;3.13;1.95;;;0.60;99.90;;;;;;7382244;19;20391;-63
2022/04/04 02:10:46;;;;;;;2.42;2.22;;;0.60;99.90;;;;;;7374372;19;20763;-63
2022/04/04 02:13:12;;;;;;;1.80;1.70;;;0.70;99.90;;;;;;7379449;19;20315;-63
2022/04/04 02:15:38;;;;;;;2.80;2.10;;;0.70;99.90;;;;;;7380556;19;20312;-63
2022/04/04 02:18:04;;;;;;;4.10;1.90;;;0.70;99.90;;;;;;7382188;19;20701;-63
2022/04/04 02:20:29;;;;;;;4.43;2.00;;;0.70;99.90;;;;;;7378642;19;20328;-63
2022/04/04 02:22:55;;;;;;;2.30;1.88;;;0.70;99.90;;;;;;7383333;19;20334;-63
2022/04/04 02:25:20;;;;;;;2.00;1.90;;;0.70;99.90;;;;;;7377819;19;20321;-63
2022/04/04 02:27:46;;;;;;;2.00;1.90;;;0.70;99.90;;;;;;7380302;19;20319;-63
2022/04/04 02:30:12;;;;;;;2.92;2.00;;;0.70;99.90;;;;;;7376864;19;20369;-64
2022/04/04 02:32:38;;;;;;;2.17;1.97;;;0.70;99.90;;;;;;7378326;19;20408;-63
2022/04/04 02:35:04;;;;;;;2.27;2.07;;;0.70;99.90;;;;;;7380254;19;20320;-63
2022/04/04 02:37:30;;;;;;;2.28;2.08;;;0.80;99.90;;;;;;7376852;19;20344;-63
2022/04/04 02:39:56;;;;;;;2.13;1.93;;;0.70;99.90;;;;;;7378778;19;20324;-64
2022/04/04 02:42:22;;;;;;;2.00;1.80;;;0.80;99.90;;;;;;7381875;19;20698;-63
2022/04/04 02:44:48;;;;;;;2.50;1.92;;;0.80;99.90;;;;;;7378506;19;20319;-63
2022/04/04 02:47:14;;;;;;;2.10;1.90;;;0.80;99.90;;;;;;7382186;19;20312;-63
2022/04/04 02:49:39;;;;;;;2.90;2.20;;;0.80;99.90;;;;;;7376155;19;20375;-63
2022/04/04 02:52:05;;;;;;;2.70;1.70;;;0.90;99.90;;;;;;7384977;19;20959;-64
2022/04/04 02:54:31;;;;;;;2.35;2.08;;;0.70;99.90;;;;;;7387306;19;20308;-63
2022/04/04 02:56:56;;;;;;;2.13;2.03;;;0.70;99.90;;;;;;7386350;19;20316;-63
2022/04/04 02:59:22;;;;;;;2.30;2.03;;;0.70;99.90;;;;;;7386078;19;20351;-64
2022/04/04 03:01:50;;;;;;;2.10;1.90;;;0.70;99.90;;;;;;7383217;19;20353;-63
2022/04/04 03:04:16;;;;;;;2.20;2.03;;;0.60;99.90;;;;;;7388783;19;20347;-63
2022/04/04 03:06:42;;;;;;;1.90;1.80;;;0.60;99.90;;;;;;7387269;19;20300;-63
2022/04/04 03:09:08;;;;;;;2.07;1.93;;;0.60;99.90;;;;;;7383847;19;20383;-63
2022/04/04 03:11:33;;;;;;;2.83;2.30;;;0.60;99.90;;;;;;7386022;19;20369;-63
2022/04/04 03:14:03;;;;;;;2.00;1.80;;;0.60;99.90;;;;;;7387644;19;20341;-63
2022/04/04 03:16:29;;;;;;;2.30;2.00;;;0.50;99.90;;;;;;7374212;19;20335;-63
2022/04/04 03:18:54;;;;;;;2.63;1.90;;;0.50;99.90;;;;;;7382588;19;20749;-63
2022/04/04 03:21:21;;;;;;;2.40;2.20;;;0.50;99.90;;;;;;7387251;19;20319;-63
2022/04/04 03:23:46;;;;;;;1.87;1.77;;;0.50;99.90;;;;;;7384551;19;20325;-63
2022/04/04 03:26:12;;;;;;;2.50;1.80;;;0.40;99.90;;;;;;7386984;19;20436;-63
2022/04/04 03:28:38;;;;;;;2.30;2.10;;;0.40;99.90;;;;;;7386895;19;20301;-63
2022/04/04 03:31:05;;;;;;;1.90;1.80;;;0.40;99.90;;;;;;7379510;19;20416;-63
2022/04/04 03:33:31;;;;;;;2.33;2.00;;;0.30;99.90;;;;;;7385909;19;20921;-63
2022/04/04 03:35:58;;;;;;;2.08;1.70;;;0.30;99.90;;;;;;7386017;19;20305;-63
2022/04/04 03:38:24;;;;;;;1.70;1.60;;;0.20;99.90;;;;;;7386825;19;20339;-63
2022/04/04 03:40:50;;;;;;;2.40;2.10;;;0.20;99.90;;;;;;7379941;19;20305;-64
2022/04/04 03:43:16;;;;;;;2.50;2.23;;;0.10;99.90;;;;;;7383805;19;20301;-63
2022/04/04 03:45:41;;;;;;;2.07;1.97;;;0.10;99.90;;;;;;7383255;19;20876;-63
2022/04/04 03:48:08;;;;;;;1.92;1.83;;;0.10;99.90;;;;;;7390166;19;20300;-63
2022/04/04 03:50:35;;;;;;;3.00;2.10;;;0.00;99.90;;;;;;7378968;19;20703;-63
2022/04/04 03:53:01;;;;;;;2.10;1.98;;;0.00;99.90;;;;;;7384895;19;20379;-64
2022/04/04 03:55:28;;;;;;;2.60;2.03;;;0.10;99.90;;;;;;7386777;19;21105;-63
2022/04/04 03:57:54;;;;;;;2.97;2.33;;;0.00;99.90;;;;;;7383570;19;20321;-63
2022/04/04 04:00:21;;;;;;;3.42;2.60;;;-0.10;99.90;;;;;;7380191;19;20323;-64
2022/04/04 04:02:47;;;;;;;2.65;2.45;;;-0.10;99.90;;;;;;7384468;19;20424;-64
2022/04/04 04:05:13;;;;;;;2.40;2.20;;;-0.10;99.90;;;;;;7383274;19;20898;-64
2022/04/04 04:07:38;;;;;;;3.77;2.17;;;-0.20;99.90;;;;;;7384998;19;20328;-64
2022/04/04 04:10:05;;;;;;;2.40;2.20;;;-0.20;99.90;;;;;;7378218;19;20300;-64
2022/04/04 04:12:31;;;;;;;2.70;2.50;;;-0.20;99.90;;;;;;7382839;19;20349;-63
2022/04/04 04:14:57;;;;;;;3.97;2.67;;;-0.20;99.90;;;;;;7383912;19;20320;-63
2022/04/04 04:17:24;;;;;;;2.92;2.72;;;-0.20;99.90;;;;;;7385381;19;21210;-64
2022/04/04 04:22:35;;;;;;;5.10;3.20;;;-0.20;99.90;;;;;;7381846;19;20347;-64
2022/04/04 04:25:00;;;;;;;6.23;4.50;;;-0.20;99.90;;;;;;7382638;19;20324;-63
2022/04/04 04:27:26;;;;;;;3.45;3.15;;;-0.20;99.90;;;;;;7383983;19;20352;-63
2022/04/04 04:29:52;;;;;;;3.67;3.13;;;-0.20;99.90;;;;;;7381946;19;20424;-63
2022/04/04 04:32:18;;;;;;;3.13;2.83;;;-0.10;99.90;;;;;;7376551;19;20342;-64
2022/04/04 04:34:46;;;;;;;3.55;3.25;;;-0.10;99.90;;;;;;7385826;19;20297;-64
2022/04/04 04:37:13;;;;;;;3.60;3.30;;;-0.10;99.90;;;;;;7383389;19;20325;-64
2022/04/04 04:39:39;;;;;;;3.85;2.95;;;0.00;99.90;;;;;;7380855;19;20304;-64
2022/04/04 04:42:05;;;;;;;3.47;3.17;;;0.00;99.90;;;;;;7384708;19;20876;-63
2022/04/04 04:44:31;;;;;;;3.65;3.35;;;0.00;99.90;;;;;;7383018;19;20415;-63
2022/04/04 04:46:56;;;;;;;4.10;3.70;;;0.10;99.90;;;;;;7385915;19;20341;-63
2022/04/04 04:49:24;;;;;;;3.63;3.33;;;0.20;99.90;;;;;;7382264;19;20356;-64
2022/04/04 04:51:49;;;;;;;4.53;3.58;;;0.30;99.90;;;;;;7382877;19;20337;-64
2022/04/04 04:54:16;;;;;;;4.43;4.03;;;0.20;99.90;;;;;;7383955;19;20321;-63
2022/04/04 04:56:43;;;;;;;4.30;3.90;;;0.30;99.90;;;;;;7385822;19;20856;-63
2022/04/04 04:59:09;;;;;;;4.38;3.85;;;0.30;99.90;;;;;;7379565;19;20360;-63
2022/04/04 05:01:35;;;;;;;4.95;3.35;;;0.40;99.90;;;;;;7382172;19;20309;-63
2022/04/04 05:04:01;;;;;;;3.95;3.50;;;0.40;99.90;;;;;;7382012;19;20348;-64
2022/04/04 05:06:26;;;;;;;5.72;3.78;;;0.50;99.90;;;;;;7382946;19;20878;-64
2022/04/04 05:08:55;;;;;;;4.37;3.60;;;0.50;99.90;;;;;;7383215;19;20317;-64
2022/04/04 05:11:21;;;;;;;5.17;4.10;;;0.60;99.90;;;;;;7376954;19;20416;-64
2022/04/04 05:13:47;;;;;;;4.47;3.88;;;0.60;99.90;;;;;;7378589;19;20340;-64
2022/04/04 05:16:14;;;;;;;5.13;4.25;;;0.60;99.90;;;;;;7382042;19;20333;-63
2022/04/04 05:18:43;;;;;;;5.30;4.20;;;0.60;99.90;;;;;;7380543;19;20357;-63
2022/04/04 05:21:09;;;;;;;4.60;4.13;;;0.70;99.90;;;;;;7382237;19;20317;-64
2022/04/04 05:23:36;;;;;;;5.20;4.50;;;0.70;99.90;;;;;;7380977;19;20309;-64
2022/04/04 05:26:01;;;;;;;5.55;4.28;;;0.80;99.90;;;;;;7381080;19;20325;-63
2022/04/04 05:28:27;;;;;;;5.38;4.70;;;0.80;99.90;;;;;;7382952;19;20305;-63
2022/04/04 05:30:52;;;;;;;5.00;4.30;;;0.90;99.90;;;;;;7376669;19;20987;-63
2022/04/04 05:33:18;;;;;;;4.67;4.27;;;0.90;99.90;;;;;;7381858;19;20356;-63
2022/04/04 05:35:44;;;;;;;5.32;3.85;;;0.90;99.90;;;;;;7384049;19;21082;-64
2022/04/04 05:38:09;;;;;;;4.03;3.63;;;1.00;99.90;;;;;;7381618;19;20300;-64
2022/04/04 05:40:35;;;;;;;4.32;3.95;;;1.00;99.90;;;;;;7382451;19;20347;-64
2022/04/04 05:43:01;;;;;;;4.40;4.00;;;1.00;99.90;;;;;;7382981;19;20315;-64
2022/04/04 05:45:27;;;;;;;4.50;4.10;;;1.00;99.90;;;;;;7383305;19;20660;-63
2022/04/04 05:47:52;;;;;;;6.13;4.70;;;1.10;99.90;;;;;;7386256;19;20309;-64
2022/04/04 05:50:18;;;;;;;5.05;4.00;;;1.10;99.90;;;;;;7378302;19;20342;-64
2022/04/04 05:52:44;;;;;;;4.97;4.47;;;1.20;99.90;;;;;;7382433;19;20353;-64
2022/04/04 05:55:10;;;;;;;5.00;4.20;;;1.20;99.90;;;;;;7382730;19;20305;-63
2022/04/04 05:57:38;;;;;;;4.55;4.15;;;1.20;99.90;;;;;;7382637;19;20312;-64
2022/04/04 06:00:11;;;;;;;6.35;4.05;;;1.30;99.90;;;;;;7379664;19;20374;-63
2022/04/04 06:02:37;;;;;;;4.38;4.07;;;1.30;99.90;;;;;;7383157;19;20328;-64
2022/04/04 06:05:04;;;;;;;4.50;4.10;;;1.40;99.90;;;;;;7382098;19;21122;-64
2022/04/04 06:07:30;;;;;;;4.63;4.23;;;1.50;99.90;;;;;;7381454;19;20329;-64
2022/04/04 06:09:55;;;;;;;5.70;4.37;;;1.50;99.90;;;;;;7376642;19;21071;-65
2022/04/04 06:12:21;;;;;;;4.70;4.25;;;1.60;99.90;;;;;;7380420;19;20328;-64
2022/04/04 06:14:47;;;;;;;4.90;4.40;;;1.70;99.90;;;;;;7378464;19;20304;-64
2022/04/04 06:17:13;;;;;;;4.85;4.45;;;1.80;99.90;;;;;;7378941;19;20292;-63
2022/04/04 06:19:38;;;;;;;4.70;4.20;;;1.90;99.90;;;;;;7377373;19;20337;-64
2022/04/04 06:22:04;;;;;;;4.97;4.50;;;2.00;99.90;;;;;;7383594;19;20325;-64
2022/04/04 06:24:31;;;;;;;5.20;4.78;;;2.20;99.90;;;;;;7380450;19;20369;-64
2022/04/04 06:27:00;;;;;;;5.40;4.45;;;2.30;99.90;;;;;;7381245;19;20413;-63
2022/04/04 06:29:25;;;;;;;5.40;4.90;;;2.40;99.90;;;;;;7362111;19;20696;-64
2022/04/04 06:31:51;;;;;;;5.30;4.80;;;2.50;99.90;;;;;;7378593;19;20319;-64
2022/04/04 06:34:17;;;;;;;5.47;4.97;;;2.60;99.90;;;;;;7382166;19;21032;-64
2022/04/04 06:36:43;;;;;;;5.68;5.13;;;2.70;99.90;;;;;;7381772;19;20684;-65
2022/04/04 06:39:08;;;;;;;6.13;5.53;;;2.70;99.90;;;;;;7378663;19;20309;-64
2022/04/04 06:41:36;;;;;;;5.70;5.20;;;2.80;99.90;;;;;;7381734;19;20883;-64
2022/04/04 06:44:03;;;;;;;6.15;5.32;;;2.90;99.90;;;;;;7381332;19;20320;-64
2022/04/04 06:46:29;;;;;;;6.50;5.85;;;2.90;99.90;;;;;;7378417;19;20316;-64
2022/04/04 06:48:54;;;;;;;14.40;6.50;;;3.00;99.90;;;;;;7379382;19;20355;-64
2022/04/04 06:51:20;;;;;;;5.90;5.30;;;3.10;99.90;;;;;;7381030;19;20666;-63
2022/04/04 06:53:46;;;;;;;6.15;5.55;;;3.20;99.90;;;;;;7379627;19;20352;-64
2022/04/04 06:56:12;;;;;;;6.85;5.63;;;3.20;99.90;;;;;;7379948;19;20304;-64
2022/04/04 06:58:38;;;;;;;6.47;5.80;;;3.20;99.90;;;;;;7380133;19;20305;-64
2022/04/04 07:01:04;;;;;;;5.50;5.00;;;3.30;99.90;;;;;;7375906;19;20312;-63
2022/04/04 07:03:29;;;;;;;6.17;5.27;;;3.30;99.90;;;;;;7379809;19;20345;-65
2022/04/04 07:05:55;;;;;;;6.20;5.60;;;3.50;99.90;;;;;;7378733;19;20344;-64
2022/04/04 07:08:21;;;;;;;5.45;4.95;;;3.50;99.90;;;;;;7379233;19;20644;-64
2022/04/04 07:10:47;;;;;;;5.60;5.03;;;3.70;99.90;;;;;;7377775;19;20311;-63
2022/04/04 07:13:14;;;;;;;5.30;4.80;;;3.80;99.90;;;;;;7375422;19;20288;-63
2022/04/04 07:15:41;;;;;;;5.85;4.88;;;3.80;99.90;;;;;;7376421;19;20876;-64
2022/04/04 07:18:07;;;;;;;5.68;5.05;;;4.00;99.90;;;;;;7381496;19;20323;-64
2022/04/04 07:20:33;;;;;;;5.18;4.68;;;4.00;99.90;;;;;;7376416;19;20329;-64
2022/04/04 07:22:58;;;;;;;5.30;4.85;;;4.10;99.90;;;;;;7379692;19;20345;-65
2022/04/04 07:25:24;;;;;;;5.63;4.80;;;4.30;99.90;;;;;;7379476;19;20400;-64
2022/04/04 07:27:50;;;;;;;5.83;4.90;;;4.40;99.90;;;;;;7378829;19;20339;-64
2022/04/04 07:30:17;;;;;;;4.82;4.38;;;4.30;99.90;;;;;;7372711;19;20317;-64
2022/04/04 07:32:43;;;;;;;4.97;4.57;;;4.40;99.90;;;;;;7376871;19;20313;-64
2022/04/04 07:35:12;;;;;;;6.25;4.57;;;4.50;99.90;;;;;;7378375;19;20311;-65
2022/04/04 07:37:43;;;;;;;5.00;4.50;;;4.60;99.90;;;;;;7384251;19;20348;-65
2022/04/04 07:40:13;;;;;;;6.18;5.38;;;4.70;99.90;;;;;;7384584;19;20318;-64
2022/04/04 07:42:39;;;;;;;5.90;4.70;;;4.70;99.90;;;;;;7387110;19;20968;-64
2022/04/04 07:45:06;;;;;;;5.40;4.90;;;4.80;99.90;;;;;;7384743;19;21210;-64
2022/04/04 07:47:32;;;;;;;5.93;4.97;;;4.80;99.90;;;;;;7385924;19;20701;-65
2022/04/04 07:49:57;;;;;;;5.17;4.67;;;5.00;99.90;;;;;;7382801;19;20320;-65
2022/04/04 07:52:23;;;;;;;5.43;4.23;;;5.10;99.90;;;;;;7382924;19;20316;-65
2022/04/04 07:54:48;;;;;;;5.20;4.60;;;5.20;99.90;;;;;;7385895;19;20301;-64
2022/04/04 07:57:15;;;;;;;4.83;4.33;;;5.40;99.90;;;;;;7385862;19;20670;-64
2022/04/04 07:59:41;;;;;;;4.50;4.03;;;5.40;99.90;;;;;;7381647;19;20336;-65
2022/04/04 08:02:07;;;;;;;4.50;4.10;;;5.50;99.90;;;;;;7383976;19;20337;-64
2022/04/04 08:04:32;;;;;;;5.10;4.50;;;5.70;99.90;;;;;;7386454;19;20325;-65
2022/04/04 08:06:58;;;;;;;6.70;4.45;;;5.80;99.90;;;;;;7386061;19;20897;-64
2022/04/04 08:09:24;;;;;;;4.45;4.05;;;5.80;99.90;;;;;;7381906;19;20337;-65
2022/04/04 08:11:50;;;;;;;4.93;3.90;;;5.90;99.90;;;;;;7383918;19;20315;-65
2022/04/04 08:14:16;;;;;;;4.77;4.10;;;6.00;99.90;;;;;;7385990;19;20325;-64
2022/04/04 08:16:41;;;;;;;4.80;3.80;;;6.00;99.90;;;;;;7385241;19;20331;-64
2022/04/04 08:19:07;;;;;;;4.30;3.90;;;6.00;99.90;;;;;;7382023;19;20360;-64
2022/04/04 08:21:34;;;;;;;4.93;4.20;;;6.10;99.90;;;;;;7386790;19;20309;-64
2022/04/04 08:23:59;;;;;;;4.75;4.32;;;6.20;99.90;;;;;;7385861;19;20308;-65
2022/04/04 08:26:25;;;;;;;4.43;4.00;;;6.20;99.90;;;;;;7386291;19;20300;-66
2022/04/04 08:28:51;;;;;;;5.82;4.00;;;6.30;99.90;;;;;;7382545;19;20386;-65
2022/04/04 08:31:16;;;;;;;6.20;3.70;;;6.20;99.90;;;;;;7382637;19;20342;-65
2022/04/04 08:33:42;;;;;;;4.38;3.97;;;6.20;99.90;;;;;;7385081;19;20681;-65
2022/04/04 08:36:08;;;;;;;4.70;4.30;;;6.10;99.90;;;;;;7387102;19;20380;-64
2022/04/04 08:38:37;;;;;;;4.38;3.97;;;6.20;99.90;;;;;;7384101;19;20315;-65
2022/04/04 08:41:03;;;;;;;5.20;4.20;;;6.40;99.90;;;;;;7382066;19;20959;-65
2022/04/04 08:43:31;;;;;;;4.43;4.00;;;6.60;99.90;;;;;;7384571;19;20301;-65
2022/04/04 08:45:56;;;;;;;4.63;4.10;;;6.70;99.90;;;;;;7383997;19;20426;-65
2022/04/04 08:48:22;;;;;;;5.07;3.97;;;6.80;99.90;;;;;;7383403;19;20296;-65
2022/04/04 08:50:47;;;;;;;4.47;4.00;;;6.90;99.90;;;;;;7379222;19;20335;-65
2022/04/04 08:53:14;;;;;;;4.07;3.50;;;6.90;99.90;;;;;;7383824;19;20389;-66
2022/04/04 08:55:39;;;;;;;4.60;3.80;;;7.00;99.90;;;;;;7384750;19;20332;-65
2022/04/04 08:58:05;;;;;;;4.00;3.63;;;6.90;99.90;;;;;;7384367;19;20317;-66
2022/04/04 09:00:31;;;;;;;3.80;3.30;;;6.80;99.90;;;;;;7380381;19;20365;-65
2022/04/04 09:03:04;;;;;;;5.50;3.60;;;6.90;99.90;;;;;;7384142;19;20995;-65
2022/04/04 09:05:34;;;;;;;3.77;3.33;;;7.10;99.90;;;;;;7384405;19;20321;-65
2022/04/04 09:08:00;;;;;;;4.20;3.80;;;7.10;99.90;;;;;;7386910;19;20316;-66
2022/04/04 09:10:36;;;;;;;3.90;3.50;;;7.10;99.90;;;;;;7385326;19;20339;-65
2022/04/04 09:13:10;;;;;;;3.58;3.28;;;7.20;99.90;;;;;;7282013;19;2004502;-65
2022/04/04 09:16:08;;;;;;;4.40;3.13;;;7.40;99.90;;;;;;7385571;19;20331;-65
2022/04/04 09:18:45;;;;;;;3.75;3.35;;;7.60;99.90;;;;;;7281135;19;2006109;-65
2022/04/04 09:21:19;;;;;;;4.63;3.50;;;7.70;99.90;;;;;;7382199;19;20363;-65
2022/04/04 09:23:50;;;;;;;6.80;3.75;;;7.40;99.90;;;;;;7384272;19;20336;-66
2022/04/04 09:26:31;;;;;;;3.58;3.28;;;7.50;99.90;;;;;;7384438;19;20321;-67
2022/04/04 09:29:05;;;;;;;3.50;3.20;;;7.60;99.90;;;;;;7381888;19;20311;-66
2022/04/04 09:31:31;;;;;;;4.03;3.50;;;7.60;99.90;;;;;;7383200;19;20340;-66
2022/04/04 09:34:01;;;;;;;6.90;4.40;;;7.70;99.90;;;;;;7383548;19;20333;-65
2022/04/04 09:36:27;;;;;;;4.07;3.77;;;7.60;99.90;;;;;;7382378;19;20312;-65
2022/04/04 09:39:00;;;;;;;4.30;3.90;;;7.50;99.90;;;;;;7364891;19;20419;-65
2022/04/04 09:41:27;;;;;;;8.27;4.68;;;7.50;99.90;;;;;;7381598;19;20301;-66
2022/04/04 09:43:55;;;;;;;4.90;4.40;;;7.60;99.90;;;;;;7384296;19;20317;-66
2022/04/04 09:46:21;;;;;;;4.80;4.22;;;7.60;99.90;;;;;;7385159;19;20421;-65
2022/04/04 09:49:08;;;;;;;4.10;3.70;;;7.70;99.90;;;;;;7383680;19;20385;-65
2022/04/04 09:51:57;;;;;;;4.43;4.03;;;8.00;99.90;;;;;;7278238;19;2004842;-65
2022/04/04 09:54:28;;;;;;;4.60;3.97;;;8.20;99.90;;;;;;7382218;19;20341;-65
2022/04/04 09:57:16;;;;;;;4.85;4.38;;;8.10;99.90;;;;;;7382361;19;20326;-66
2022/04/04 09:59:41;;;;;;;8.60;5.00;;;7.80;99.90;;;;;;7379769;19;20345;-66
2022/04/04 10:02:08;;;;;;;4.95;4.45;;;7.90;99.90;;;;;;7381762;19;20311;-66
2022/04/04 10:04:33;;;;;;;5.05;4.53;;;7.90;99.90;;;;;;7383194;19;20309;-66
2022/04/04 10:07:02;;;;;;;6.65;4.20;;;7.70;99.90;;;;;;7381468;19;20328;-65
2022/04/04 10:09:28;;;;;;;4.72;4.32;;;7.70;99.90;;;;;;7379944;19;20324;-66
2022/04/04 10:11:54;;;;;;;4.43;4.07;;;7.70;99.90;;;;;;7380391;19;20574;-65
2022/04/04 10:14:20;;;;;;;4.80;4.30;;;7.70;99.90;;;;;;7382422;19;20341;-65
2022/04/04 10:16:45;;;;;;;4.63;4.20;;;7.90;99.90;;;;;;7382579;19;20320;-65
2022/04/04 10:19:11;;;;;;;4.93;4.50;;;7.90;99.90;;;;;;7380187;19;20345;-64
2022/04/04 10:21:37;;;;;;;4.85;4.00;;;7.80;99.90;;;;;;7381297;19;20356;-66
2022/04/04 10:24:03;;;;;;;5.95;4.68;;;7.80;99.90;;;;;;7382677;19;20341;-66
2022/04/04 10:26:32;;;;;;;7.83;4.50;;;7.90;99.90;;;;;;7379525;19;20316;-66
2022/04/04 10:29:08;;;;;;;5.00;4.53;;;8.10;99.90;;;;;;7378576;19;20909;-66
2022/04/04 10:31:41;;;;;;;4.80;4.35;;;8.10;99.90;;;;;;7378399;19;20325;-66
2022/04/04 10:34:12;;;;;;;4.93;4.47;;;8.20;99.90;;;;;;7380490;19;20332;-66
2022/04/04 10:36:37;;;;;;;7.35;4.25;;;8.10;99.90;;;;;;7382424;19;20333;-66
2022/04/04 10:39:03;;;;;;;7.28;4.70;;;8.00;99.90;;;;;;7381067;19;20876;-65
2022/04/04 10:41:30;;;;;;;7.10;3.97;;;8.00;99.90;;;;;;7381117;19;20317;-65
2022/04/04 10:43:56;;;;;;;6.40;4.28;;;7.90;99.90;;;;;;7381889;19;21181;-66
2022/04/04 10:46:23;;;;;;;4.60;3.60;;;8.00;99.60;;;;;;7380398;19;20647;-65
2022/04/04 10:48:50;;;;;;;5.80;4.10;;;7.90;99.30;;;;;;7379414;19;21165;-65
2022/04/04 10:51:31;;;;;;;4.20;3.80;;;8.10;99.80;;;;;;7378121;19;20641;-66
2022/04/04 10:54:03;;;;;;;6.60;4.13;;;8.20;99.90;;;;;;7280120;19;2004516;-66
2022/04/04 10:56:29;;;;;;;7.00;4.28;;;8.10;99.90;;;;;;7278785;19;2005050;-66
2022/04/04 10:59:24;;;;;;;11.45;4.70;;;8.50;99.90;;;;;;7376756;19;21199;-66
2022/04/04 11:01:58;;;;;;;10.33;4.23;;;8.60;98.60;;;;;;7277549;19;2004595;-67
2022/04/04 11:04:32;;;;;;;7.43;4.30;;;8.70;98.70;;;;;;7380832;19;20304;-65
2022/04/04 11:09:52;;;;;;;6.47;4.25;;;8.70;98.50;;;;;;7274199;19;2004656;-65
2022/04/04 11:12:18;;;;;;;9.77;4.20;;;9.00;99.90;;;;;;7382407;19;20312;-65
2022/04/04 11:14:54;;;;;;;4.20;3.20;;;9.00;99.90;;;;;;7389307;19;20324;-66
2022/04/04 11:17:30;;;;;;;5.93;3.65;;;9.20;97.00;;;;;;7387088;19;20320;-65
2022/04/04 11:20:21;;;;;;;4.55;2.60;;;9.20;95.00;;;;;;7383255;19;20661;-65
2022/04/04 11:22:51;;;;;;;4.55;3.10;;;9.20;93.10;;;;;;7284533;19;2004378;-65
2022/04/04 11:25:19;;;;;;;8.85;3.05;;;8.90;92.00;;;;;;7386230;19;20301;-66
2022/04/04 11:27:50;;;;;;;9.88;3.50;;;8.60;92.30;;;;;;7387930;19;20333;-65
2022/04/04 11:30:20;;;;;;;5.05;3.20;;;8.40;92.90;;;;;;7381032;19;20689;-66
2022/04/04 11:32:49;;;;;;;4.05;3.45;;;8.20;92.90;;;;;;7387982;19;20327;-65
2022/04/04 11:35:27;;;;;;;5.50;4.10;;;8.30;95.40;;;;;;7388080;19;21740;-66
2022/04/04 11:38:07;;;;;;;4.65;3.17;;;8.50;95.50;;;;;;7387032;19;21259;-66
2022/04/04 11:40:34;;;;;;;10.90;4.03;;;8.70;95.50;;;;;;7383951;19;20333;-66
2022/04/04 11:43:23;;;;;;;4.75;3.60;;;9.00;94.70;;;;;;7386720;19;20349;-65
2022/04/04 11:45:49;;;;;;;4.40;3.88;;;9.20;94.60;;;;;;7385305;19;20312;-66
2022/04/04 11:48:23;;;;;;;7.82;4.32;;;9.20;93.90;;;;;;7385778;19;20329;-66
2022/04/04 11:50:50;;;;;;;6.63;4.40;;;9.30;95.10;;;;;;7384189;19;20329;-66
2022/04/04 11:53:20;;;;;;;5.57;4.07;;;9.30;96.20;;;;;;7384853;19;20353;-67
2022/04/04 11:55:46;;;;;;;12.45;4.05;;;9.30;94.40;;;;;;7386383;19;21185;-66
2022/04/04 11:58:16;;;;;;;6.28;4.50;;;9.20;94.60;;;;;;7386422;19;20308;-66
2022/04/04 12:00:44;;;;;;;4.85;4.05;;;9.10;96.40;;;;;;7381648;19;20325;-66
2022/04/04 12:03:11;;;;;;;8.52;3.83;;;9.30;94.10;;;;;;7386186;19;20312;-66
2022/04/04 12:05:40;;;;;;;5.60;3.88;;;9.50;92.60;;;;;;7385834;19;20329;-67
2022/04/04 12:08:06;;;;;;;7.07;3.60;;;9.70;94.10;;;;;;7385861;19;20319;-66
2022/04/04 12:10:35;;;;;;;3.60;3.30;;;9.50;91.40;;;;;;7380046;19;20340;-64
2022/04/04 12:13:21;;;;;;;11.25;4.05;;;9.10;90.90;;;;;;7384634;19;20367;-66
2022/04/04 12:15:50;;;;;;;4.93;3.40;;;8.80;92.50;;;;;;7283664;19;2004301;-65
2022/04/04 12:18:26;;;;;;;5.70;3.37;;;8.70;92.40;;;;;;7386706;19;20332;-66
2022/04/04 12:20:59;;;;;;;8.50;4.07;;;9.00;91.60;;;;;;7388368;19;20333;-65
2022/04/04 12:26:11;;;;;;;7.70;4.33;;;8.90;92.50;;;;;;7384221;19;20671;-66
2022/04/04 12:28:41;;;;;;;6.57;4.43;;;9.20;93.10;;;;;;7384894;19;20296;-65
2022/04/04 12:31:11;;;;;;;5.80;4.05;;;9.20;92.10;;;;;;7378531;19;20315;-66
2022/04/04 12:33:36;;;;;;;6.22;4.10;;;9.10;91.70;;;;;;7384812;19;20312;-65
2022/04/04 12:36:02;;;;;;;7.53;3.80;;;8.90;91.30;;;;;;7386022;19;20654;-66
2022/04/04 12:38:38;;;;;;;9.32;4.28;;;9.00;92.20;;;;;;7385731;19;20322;-65
2022/04/04 12:41:13;;;;;;;6.00;3.90;;;9.00;92.30;;;;;;7384452;19;20309;-66
2022/04/04 12:43:43;;;;;;;4.25;3.67;;;9.00;92.60;;;;;;7282682;19;2004492;-66
2022/04/04 12:46:41;;;;;;;6.88;4.20;;;9.10;92.20;;;;;;7383796;19;20307;-67
2022/04/04 12:49:26;;;;;;;7.60;3.88;;;9.10;91.60;;;;;;7279911;19;2004494;-66
2022/04/04 12:52:00;;;;;;;4.85;4.10;;;9.20;92.90;;;;;;7384322;19;20918;-67
2022/04/04 12:54:31;;;;;;;5.32;3.55;;;8.90;91.80;;;;;;7384960;19;20336;-66
2022/04/04 12:56:57;;;;;;;6.82;3.80;;;8.70;90.70;;;;;;7385015;19;20813;-65
2022/04/04 12:59:25;;;;;;;4.05;3.63;;;8.70;91.30;;;;;;7381156;19;20331;-66
2022/04/04 13:02:04;;;;;;;3.70;3.40;;;8.80;91.90;;;;;;7382854;19;20331;-65
2022/04/04 13:04:30;;;;;;;4.90;3.80;;;8.50;91.40;;;;;;7384486;19;20312;-65
2022/04/04 13:06:57;;;;;;;8.68;3.97;;;8.70;93.10;;;;;;7382195;19;20389;-66